20 Jun 2018 07:33 UTC 2018171+07:33 UTC

Overview Datums Bench Marks Data Query Site Visit Daily QC Messages Attributes

079: SALT08

27° 52' 14" N   97° 31' 3" W
SALT08
City of Corpus Christi Salinity Monitoring Salinity

Station Information

SALT08
SALT08
more pictures
 
Station Name:SALT08
DNR ID:079
Location:27° 52' 14" N, 97° 31' 3" W

Water Level Forecasts

Latest Observations

Series Metric English Marine Observed at
Water Temperature 26.2 °C 79.2 °F 79.2 °F Jun 20 02:24 CDT
00h06m ago
Salinity 23.000 psu 23.000 psu 23.000 psu Jun 20 02:24 CDT
00h06m ago

Maps

SALT08
All Stations in Area
Entire Network
 

Recent Observations

Date/Time Water
Temp (°F)
Sal (psu)
Jun 20 02:00 CDT 79.2 23.200
Jun 20 01:00 CDT 79.2 23.300
Jun 20 00:00 CDT 79.3 23.900
Jun 19 23:00 CDT 80.2 27.000
Jun 19 22:00 CDT 80.6 29.100
Jun 19 21:00 CDT 80.8 30.000
Jun 19 20:00 CDT 81.0 30.300
Jun 19 19:00 CDT 81.3 30.700
Jun 19 18:00 CDT 81.1 30.800
Jun 19 17:00 CDT 80.8 30.900
Jun 19 16:00 CDT 80.6 30.700
Jun 19 15:00 CDT 80.8 31.500
Jun 19 14:00 CDT 80.6 31.300
Jun 19 12:00 CDT 80.2 31.500
Jun 19 11:00 CDT 79.3 28.400
Jun 19 10:00 CDT 79.0 28.700
Jun 19 09:00 CDT 79.2 28.200
Jun 19 08:00 CDT 79.5 29.300
Jun 19 07:00 CDT 80.6 32.300
Jun 19 06:00 CDT 79.9 29.600
Jun 19 05:00 CDT 79.9 28.700
Jun 19 04:00 CDT 79.9 28.500
Jun 19 03:00 CDT 80.1 28.600
Jun 19 02:00 CDT 82.2 35.400

Historical Data Availability